createdAt,value
2019-05-03T00:00:04.384Z,72.6
2019-05-03T00:15:04.606Z,77.1
2019-05-03T00:30:04.453Z,76.9
2019-05-03T00:45:04.488Z,77.6
2019-05-03T01:00:04.530Z,77.9
2019-05-03T01:15:04.820Z,78.7
2019-05-03T01:30:04.600Z,79.2
2019-05-03T01:45:04.643Z,79.4
2019-05-03T02:00:04.695Z,79.6
2019-05-03T02:15:04.794Z,80.7
2019-05-03T02:30:05.084Z,81.2
2019-05-03T02:45:06.401Z,83
2019-05-03T03:00:05.467Z,83.5
2019-05-03T03:15:06.559Z,84.6
2019-05-03T03:30:08.397Z,85.2
2019-05-03T03:45:07.409Z,84.4
2019-05-03T04:00:07.398Z,83.6
2019-05-03T04:15:07.405Z,85.1
2019-05-03T04:30:07.469Z,84.6
2019-05-03T04:45:07.481Z,85.3
2019-05-03T05:00:12.043Z,85.5
2019-05-03T05:15:07.825Z,84.1
2019-05-03T05:30:07.809Z,82
2019-05-03T05:45:07.903Z,78.3
2019-05-03T06:00:10.400Z,78
2019-05-03T06:15:10.422Z,76.9
2019-05-03T06:30:10.401Z,78.3
2019-05-03T06:45:12.107Z,79.5
2019-05-03T07:00:11.517Z,79.9
2019-05-03T07:15:11.602Z,79.6
2019-05-03T07:30:11.736Z,78.6
2019-05-03T07:45:11.628Z,78.7
2019-05-03T08:00:12.198Z,77.8
2019-05-03T08:15:11.820Z,78.1
2019-05-03T08:30:11.655Z,80.3
2019-05-03T08:45:11.751Z,77.1
2019-05-03T09:00:14.701Z,77.5
2019-05-03T09:15:12.329Z,72.6
2019-05-03T09:30:05.280Z,72.5
2019-05-03T09:45:09.467Z,70.3
2019-05-03T10:00:06.627Z,70.6
2019-05-03T10:15:10.242Z,68.8
2019-05-03T10:30:17.202Z,67.6
2019-05-03T10:45:12.208Z,66.1
2019-05-03T11:00:07.905Z,63.8
2019-05-03T11:15:07.877Z,65.5
2019-05-03T11:30:10.136Z,66.5
2019-05-03T11:45:04.862Z,64.6
2019-05-03T12:00:06.702Z,64
2019-05-03T12:15:04.605Z,66.8
2019-05-03T12:30:10.267Z,64.3
2019-05-03T12:45:10.806Z,65.8
2019-05-03T13:00:10.857Z,63.4
2019-05-03T13:15:07.100Z,61.7
2019-05-03T13:30:07.656Z,61.7
2019-05-03T13:45:08.215Z,61.1
2019-05-03T14:00:08.256Z,61.9
2019-05-03T14:15:10.021Z,65.3
2019-05-03T14:30:10.014Z,67.7
2019-05-03T14:45:10.020Z,69.1
2019-05-03T15:00:10.133Z,70.1
2019-05-03T15:15:10.653Z,70.2
2019-05-03T15:30:11.218Z,68.6
2019-05-03T15:45:02.749Z,67.1
2019-05-03T16:00:15.003Z,66.9
2019-05-03T16:15:04.992Z,67.3
2019-05-03T16:30:05.333Z,67.6
2019-05-03T16:45:05.820Z,69.5
2019-05-03T17:00:05.947Z,69.1
2019-05-03T17:15:05.360Z,68.5
2019-05-03T17:30:04.885Z,68.9
2019-05-03T17:45:05.562Z,67.7
2019-05-03T18:00:05.561Z,71.7
2019-05-03T18:15:05.999Z,74.5
2019-05-03T18:30:05.657Z,74.7
2019-05-03T18:45:05.935Z,75.2
2019-05-03T19:00:08.499Z,77.2
2019-05-03T19:15:05.986Z,78.1
2019-05-03T19:30:06.035Z,78.9
2019-05-03T19:45:06.201Z,79.8
2019-05-03T20:00:06.095Z,79.1
2019-05-03T20:15:06.176Z,78.8
2019-05-03T20:30:06.187Z,80.5
2019-05-03T20:45:06.318Z,79.9
2019-05-03T21:00:06.338Z,81.3
2019-05-03T21:15:06.302Z,81.9
2019-05-03T21:30:07.607Z,81.9
2019-05-03T21:45:07.648Z,82.6
2019-05-03T22:00:08.268Z,82.2
2019-05-03T22:15:07.735Z,81.4
2019-05-03T22:30:07.835Z,80.8
2019-05-03T22:45:07.885Z,80
2019-05-03T23:00:07.917Z,80.7
2019-05-03T23:15:07.892Z,80.7
2019-05-03T23:30:07.930Z,80.7
2019-05-03T23:45:08.040Z,81.7
